sensor_id;sensor_type;location;lat;lon;timestamp;P1;durP1;ratioP1;P2;durP2;ratioP2
81398;SDS011;70853;50.074;10.224;2023-08-24T00:01:10;2.28;;;2.08;;
81398;SDS011;70853;50.074;10.224;2023-08-24T00:03:38;3.78;;;2.17;;
81398;SDS011;70853;50.074;10.224;2023-08-24T00:06:04;5.03;;;3.08;;
81398;SDS011;70853;50.074;10.224;2023-08-24T00:08:31;4.15;;;2.58;;
81398;SDS011;70853;50.074;10.224;2023-08-24T00:10:56;7.60;;;5.53;;
81398;SDS011;70853;50.074;10.224;2023-08-24T00:13:22;4.25;;;3.28;;
81398;SDS011;70853;50.074;10.224;2023-08-24T00:15:47;6.05;;;2.75;;
81398;SDS011;70853;50.074;10.224;2023-08-24T00:18:13;3.88;;;3.50;;
81398;SDS011;70853;50.074;10.224;2023-08-24T00:20:38;5.28;;;3.85;;
81398;SDS011;70853;50.074;10.224;2023-08-24T00:23:04;3.90;;;2.85;;
81398;SDS011;70853;50.074;10.224;2023-08-24T00:25:30;4.97;;;4.55;;
81398;SDS011;70853;50.074;10.224;2023-08-24T00:27:56;3.80;;;3.25;;
81398;SDS011;70853;50.074;10.224;2023-08-24T00:30:23;5.20;;;2.63;;
81398;SDS011;70853;50.074;10.224;2023-08-24T00:32:49;3.65;;;2.75;;
81398;SDS011;70853;50.074;10.224;2023-08-24T00:35:14;3.65;;;3.33;;
81398;SDS011;70853;50.074;10.224;2023-08-24T00:37:40;4.28;;;3.28;;
81398;SDS011;70853;50.074;10.224;2023-08-24T00:40:07;6.03;;;3.75;;
81398;SDS011;70853;50.074;10.224;2023-08-24T00:42:37;2.90;;;2.40;;
81398;SDS011;70853;50.074;10.224;2023-08-24T00:45:05;2.00;;;1.65;;
81398;SDS011;70853;50.074;10.224;2023-08-24T00:47:32;5.07;;;3.05;;
81398;SDS011;70853;50.074;10.224;2023-08-24T00:50:01;3.13;;;2.65;;
81398;SDS011;70853;50.074;10.224;2023-08-24T00:52:29;4.85;;;1.95;;
81398;SDS011;70853;50.074;10.224;2023-08-24T00:54:57;3.70;;;3.38;;
81398;SDS011;70853;50.074;10.224;2023-08-24T00:57:24;4.95;;;4.55;;
81398;SDS011;70853;50.074;10.224;2023-08-24T00:59:54;6.95;;;4.18;;
81398;SDS011;70853;50.074;10.224;2023-08-24T01:02:21;3.80;;;2.95;;
81398;SDS011;70853;50.074;10.224;2023-08-24T01:04:47;2.28;;;2.08;;
81398;SDS011;70853;50.074;10.224;2023-08-24T01:07:13;2.75;;;1.92;;
81398;SDS011;70853;50.074;10.224;2023-08-24T01:09:40;2.80;;;1.60;;
81398;SDS011;70853;50.074;10.224;2023-08-24T01:12:10;3.38;;;1.88;;
81398;SDS011;70853;50.074;10.224;2023-08-24T01:15:22;4.35;;;4.05;;
81398;SDS011;70853;50.074;10.224;2023-08-24T01:17:50;4.85;;;3.88;;
81398;SDS011;70853;50.074;10.224;2023-08-24T01:20:18;4.03;;;2.92;;
81398;SDS011;70853;50.074;10.224;2023-08-24T01:25:49;5.80;;;4.43;;
81398;SDS011;70853;50.074;10.224;2023-08-24T01:28:18;5.18;;;2.85;;
81398;SDS011;70853;50.074;10.224;2023-08-24T01:30:46;4.88;;;3.25;;
81398;SDS011;70853;50.074;10.224;2023-08-24T01:33:12;5.45;;;4.93;;
81398;SDS011;70853;50.074;10.224;2023-08-24T01:35:38;3.20;;;2.90;;
81398;SDS011;70853;50.074;10.224;2023-08-24T01:38:05;5.07;;;4.57;;
81398;SDS011;70853;50.074;10.224;2023-08-24T01:43:04;5.65;;;3.83;;
81398;SDS011;70853;50.074;10.224;2023-08-24T01:45:32;6.93;;;5.65;;
81398;SDS011;70853;50.074;10.224;2023-08-24T01:48:02;6.15;;;5.72;;
81398;SDS011;70853;50.074;10.224;2023-08-24T01:50:29;3.97;;;3.47;;
81398;SDS011;70853;50.074;10.224;2023-08-24T01:52:56;5.82;;;5.32;;
81398;SDS011;70853;50.074;10.224;2023-08-24T01:55:24;5.63;;;5.18;;
81398;SDS011;70853;50.074;10.224;2023-08-24T01:57:49;4.97;;;2.70;;
81398;SDS011;70853;50.074;10.224;2023-08-24T02:00:15;6.20;;;2.90;;
81398;SDS011;70853;50.074;10.224;2023-08-24T02:02:44;4.97;;;4.40;;
81398;SDS011;70853;50.074;10.224;2023-08-24T02:05:10;5.65;;;5.10;;
81398;SDS011;70853;50.074;10.224;2023-08-24T02:07:35;7.47;;;4.50;;
81398;SDS011;70853;50.074;10.224;2023-08-24T02:10:02;4.88;;;4.40;;
81398;SDS011;70853;50.074;10.224;2023-08-24T02:12:28;3.60;;;3.30;;
81398;SDS011;70853;50.074;10.224;2023-08-24T02:14:54;4.65;;;4.25;;
81398;SDS011;70853;50.074;10.224;2023-08-24T02:17:19;5.55;;;5.05;;
81398;SDS011;70853;50.074;10.224;2023-08-24T02:19:45;7.55;;;6.45;;
81398;SDS011;70853;50.074;10.224;2023-08-24T02:22:10;10.15;;;9.45;;
81398;SDS011;70853;50.074;10.224;2023-08-24T02:24:36;5.55;;;5.10;;
81398;SDS011;70853;50.074;10.224;2023-08-24T02:27:02;4.85;;;4.40;;
81398;SDS011;70853;50.074;10.224;2023-08-24T02:29:28;8.43;;;7.63;;
81398;SDS011;70853;50.074;10.224;2023-08-24T02:31:55;6.13;;;5.35;;
81398;SDS011;70853;50.074;10.224;2023-08-24T02:34:20;6.35;;;5.75;;
81398;SDS011;70853;50.074;10.224;2023-08-24T02:36:46;8.88;;;8.23;;
81398;SDS011;70853;50.074;10.224;2023-08-24T02:39:11;4.90;;;4.50;;
81398;SDS011;70853;50.074;10.224;2023-08-24T02:41:37;6.75;;;5.93;;
81398;SDS011;70853;50.074;10.224;2023-08-24T02:44:03;8.02;;;7.43;;
81398;SDS011;70853;50.074;10.224;2023-08-24T02:46:29;8.52;;;7.82;;
81398;SDS011;70853;50.074;10.224;2023-08-24T02:48:55;7.55;;;7.03;;
81398;SDS011;70853;50.074;10.224;2023-08-24T02:51:21;4.85;;;4.40;;
81398;SDS011;70853;50.074;10.224;2023-08-24T02:53:47;6.60;;;6.10;;
81398;SDS011;70853;50.074;10.224;2023-08-24T02:56:13;10.05;;;9.27;;
81398;SDS011;70853;50.074;10.224;2023-08-24T02:58:39;8.77;;;8.15;;
81398;SDS011;70853;50.074;10.224;2023-08-24T03:01:07;6.05;;;5.45;;
81398;SDS011;70853;50.074;10.224;2023-08-24T03:03:34;5.22;;;4.65;;
81398;SDS011;70853;50.074;10.224;2023-08-24T03:06:01;9.98;;;6.10;;
81398;SDS011;70853;50.074;10.224;2023-08-24T03:08:28;5.55;;;5.05;;
81398;SDS011;70853;50.074;10.224;2023-08-24T03:10:55;6.55;;;6.03;;
81398;SDS011;70853;50.074;10.224;2023-08-24T03:13:21;7.53;;;6.80;;
81398;SDS011;70853;50.074;10.224;2023-08-24T03:15:47;7.63;;;6.97;;
81398;SDS011;70853;50.074;10.224;2023-08-24T03:18:13;5.60;;;3.70;;
81398;SDS011;70853;50.074;10.224;2023-08-24T03:20:40;6.55;;;5.28;;
81398;SDS011;70853;50.074;10.224;2023-08-24T03:23:07;6.70;;;4.55;;
81398;SDS011;70853;50.074;10.224;2023-08-24T03:25:36;6.28;;;5.68;;
81398;SDS011;70853;50.074;10.224;2023-08-24T03:28:03;6.00;;;5.32;;
81398;SDS011;70853;50.074;10.224;2023-08-24T03:30:29;6.13;;;3.65;;
81398;SDS011;70853;50.074;10.224;2023-08-24T03:32:56;6.25;;;5.75;;
81398;SDS011;70853;50.074;10.224;2023-08-24T03:35:22;3.63;;;3.00;;
81398;SDS011;70853;50.074;10.224;2023-08-24T03:37:48;6.38;;;5.45;;
81398;SDS011;70853;50.074;10.224;2023-08-24T03:40:13;5.80;;;4.70;;
81398;SDS011;70853;50.074;10.224;2023-08-24T03:42:39;8.48;;;7.75;;
81398;SDS011;70853;50.074;10.224;2023-08-24T03:45:05;6.10;;;5.10;;
81398;SDS011;70853;50.074;10.224;2023-08-24T03:47:31;9.30;;;8.35;;
81398;SDS011;70853;50.074;10.224;2023-08-24T03:49:57;6.32;;;5.20;;
81398;SDS011;70853;50.074;10.224;2023-08-24T03:52:22;4.10;;;3.70;;
81398;SDS011;70853;50.074;10.224;2023-08-24T03:54:48;8.70;;;7.25;;
81398;SDS011;70853;50.074;10.224;2023-08-24T03:57:14;7.03;;;6.40;;
81398;SDS011;70853;50.074;10.224;2023-08-24T03:59:41;8.77;;;6.65;;
81398;SDS011;70853;50.074;10.224;2023-08-24T04:02:07;9.05;;;8.25;;
81398;SDS011;70853;50.074;10.224;2023-08-24T04:04:33;8.30;;;7.65;;
81398;SDS011;70853;50.074;10.224;2023-08-24T04:06:59;4.20;;;3.80;;
81398;SDS011;70853;50.074;10.224;2023-08-24T04:09:25;5.65;;;5.00;;
81398;SDS011;70853;50.074;10.224;2023-08-24T04:11:51;7.40;;;6.80;;
81398;SDS011;70853;50.074;10.224;2023-08-24T04:14:16;6.22;;;5.72;;
81398;SDS011;70853;50.074;10.224;2023-08-24T04:16:42;6.90;;;6.30;;
81398;SDS011;70853;50.074;10.224;2023-08-24T04:19:08;9.60;;;8.88;;
81398;SDS011;70853;50.074;10.224;2023-08-24T04:21:36;5.82;;;5.32;;
81398;SDS011;70853;50.074;10.224;2023-08-24T04:24:02;5.78;;;5.22;;
81398;SDS011;70853;50.074;10.224;2023-08-24T04:26:28;7.32;;;6.68;;
81398;SDS011;70853;50.074;10.224;2023-08-24T04:28:54;8.63;;;5.95;;
81398;SDS011;70853;50.074;10.224;2023-08-24T04:31:20;5.43;;;4.93;;
81398;SDS011;70853;50.074;10.224;2023-08-24T04:33:45;7.10;;;6.45;;
81398;SDS011;70853;50.074;10.224;2023-08-24T04:36:11;6.97;;;6.40;;
81398;SDS011;70853;50.074;10.224;2023-08-24T04:38:36;6.95;;;6.03;;
81398;SDS011;70853;50.074;10.224;2023-08-24T04:41:02;7.68;;;7.00;;
81398;SDS011;70853;50.074;10.224;2023-08-24T04:43:32;8.23;;;7.57;;
81398;SDS011;70853;50.074;10.224;2023-08-24T04:45:58;8.80;;;3.63;;
81398;SDS011;70853;50.074;10.224;2023-08-24T04:48:24;7.43;;;6.25;;
81398;SDS011;70853;50.074;10.224;2023-08-24T04:50:51;7.78;;;6.50;;
81398;SDS011;70853;50.074;10.224;2023-08-24T04:53:19;6.55;;;5.25;;
81398;SDS011;70853;50.074;10.224;2023-08-24T04:55:45;8.82;;;6.20;;
81398;SDS011;70853;50.074;10.224;2023-08-24T04:58:12;8.10;;;6.82;;
81398;SDS011;70853;50.074;10.224;2023-08-24T05:00:39;8.48;;;7.68;;
81398;SDS011;70853;50.074;10.224;2023-08-24T05:03:05;5.82;;;5.10;;
81398;SDS011;70853;50.074;10.224;2023-08-24T05:05:32;4.93;;;4.53;;
81398;SDS011;70853;50.074;10.224;2023-08-24T05:07:59;7.60;;;6.80;;
81398;SDS011;70853;50.074;10.224;2023-08-24T05:10:26;7.63;;;6.85;;
81398;SDS011;70853;50.074;10.224;2023-08-24T05:12:56;7.72;;;6.32;;
81398;SDS011;70853;50.074;10.224;2023-08-24T05:15:22;7.20;;;6.53;;
81398;SDS011;70853;50.074;10.224;2023-08-24T05:17:51;5.95;;;5.38;;
81398;SDS011;70853;50.074;10.224;2023-08-24T05:20:24;8.25;;;5.40;;
81398;SDS011;70853;50.074;10.224;2023-08-24T05:22:49;5.63;;;5.13;;
81398;SDS011;70853;50.074;10.224;2023-08-24T05:25:15;6.75;;;3.80;;
81398;SDS011;70853;50.074;10.224;2023-08-24T05:27:44;5.63;;;4.82;;
81398;SDS011;70853;50.074;10.224;2023-08-24T05:30:10;6.25;;;5.40;;
81398;SDS011;70853;50.074;10.224;2023-08-24T05:32:36;6.78;;;5.68;;
81398;SDS011;70853;50.074;10.224;2023-08-24T05:35:05;4.40;;;4.00;;
81398;SDS011;70853;50.074;10.224;2023-08-24T05:37:31;4.63;;;4.22;;
81398;SDS011;70853;50.074;10.224;2023-08-24T05:40:04;4.43;;;4.00;;
81398;SDS011;70853;50.074;10.224;2023-08-24T05:42:31;6.22;;;5.47;;
81398;SDS011;70853;50.074;10.224;2023-08-24T05:44:56;9.60;;;4.82;;
81398;SDS011;70853;50.074;10.224;2023-08-24T05:47:22;8.38;;;6.30;;
81398;SDS011;70853;50.074;10.224;2023-08-24T05:49:48;6.80;;;5.75;;
81398;SDS011;70853;50.074;10.224;2023-08-24T05:52:14;6.38;;;4.07;;
81398;SDS011;70853;50.074;10.224;2023-08-24T05:54:40;8.23;;;6.97;;
81398;SDS011;70853;50.074;10.224;2023-08-24T05:57:06;6.60;;;4.80;;
81398;SDS011;70853;50.074;10.224;2023-08-24T05:59:32;6.90;;;6.32;;
81398;SDS011;70853;50.074;10.224;2023-08-24T06:01:58;11.35;;;8.95;;
81398;SDS011;70853;50.074;10.224;2023-08-24T06:04:25;7.18;;;4.22;;
81398;SDS011;70853;50.074;10.224;2023-08-24T06:06:51;6.65;;;4.38;;
81398;SDS011;70853;50.074;10.224;2023-08-24T06:09:17;10.98;;;10.05;;
81398;SDS011;70853;50.074;10.224;2023-08-24T06:11:43;5.50;;;4.70;;
81398;SDS011;70853;50.074;10.224;2023-08-24T06:14:13;5.20;;;4.70;;
81398;SDS011;70853;50.074;10.224;2023-08-24T06:16:40;5.63;;;5.20;;
81398;SDS011;70853;50.074;10.224;2023-08-24T06:19:07;4.68;;;3.42;;
81398;SDS011;70853;50.074;10.224;2023-08-24T06:21:32;7.80;;;6.00;;
81398;SDS011;70853;50.074;10.224;2023-08-24T06:23:59;6.68;;;4.07;;
81398;SDS011;70853;50.074;10.224;2023-08-24T06:26:26;5.40;;;4.28;;
81398;SDS011;70853;50.074;10.224;2023-08-24T06:28:53;9.57;;;4.82;;
81398;SDS011;70853;50.074;10.224;2023-08-24T06:31:18;4.70;;;3.25;;
81398;SDS011;70853;50.074;10.224;2023-08-24T06:33:44;6.95;;;4.13;;
81398;SDS011;70853;50.074;10.224;2023-08-24T06:38:38;4.75;;;4.05;;
81398;SDS011;70853;50.074;10.224;2023-08-24T06:41:03;5.40;;;4.25;;
81398;SDS011;70853;50.074;10.224;2023-08-24T06:43:29;7.03;;;4.75;;
81398;SDS011;70853;50.074;10.224;2023-08-24T06:45:55;6.43;;;3.75;;
81398;SDS011;70853;50.074;10.224;2023-08-24T06:48:21;9.20;;;3.47;;
81398;SDS011;70853;50.074;10.224;2023-08-24T06:50:46;6.00;;;5.35;;
81398;SDS011;70853;50.074;10.224;2023-08-24T06:53:12;6.00;;;3.55;;
81398;SDS011;70853;50.074;10.224;2023-08-24T06:55:40;6.28;;;3.53;;
81398;SDS011;70853;50.074;10.224;2023-08-24T06:58:06;7.90;;;6.35;;
81398;SDS011;70853;50.074;10.224;2023-08-24T07:00:33;7.35;;;5.60;;
81398;SDS011;70853;50.074;10.224;2023-08-24T07:03:01;7.38;;;4.18;;
81398;SDS011;70853;50.074;10.224;2023-08-24T07:05:28;6.05;;;5.53;;
81398;SDS011;70853;50.074;10.224;2023-08-24T07:07:54;7.25;;;5.28;;
81398;SDS011;70853;50.074;10.224;2023-08-24T07:10:20;6.45;;;3.97;;
81398;SDS011;70853;50.074;10.224;2023-08-24T07:12:46;9.55;;;6.88;;
81398;SDS011;70853;50.074;10.224;2023-08-24T07:15:12;4.93;;;2.97;;
81398;SDS011;70853;50.074;10.224;2023-08-24T07:17:38;7.30;;;4.72;;
81398;SDS011;70853;50.074;10.224;2023-08-24T07:20:05;5.45;;;3.67;;
81398;SDS011;70853;50.074;10.224;2023-08-24T07:22:33;7.00;;;5.13;;
81398;SDS011;70853;50.074;10.224;2023-08-24T07:25:00;4.30;;;3.65;;
81398;SDS011;70853;50.074;10.224;2023-08-24T07:27:30;6.57;;;3.53;;
81398;SDS011;70853;50.074;10.224;2023-08-24T07:30:02;4.80;;;4.40;;
81398;SDS011;70853;50.074;10.224;2023-08-24T07:32:33;5.47;;;3.13;;
81398;SDS011;70853;50.074;10.224;2023-08-24T07:34:59;4.85;;;4.35;;
81398;SDS011;70853;50.074;10.224;2023-08-24T07:37:25;4.82;;;4.43;;
81398;SDS011;70853;50.074;10.224;2023-08-24T07:39:51;3.78;;;3.03;;
81398;SDS011;70853;50.074;10.224;2023-08-24T07:42:20;8.25;;;4.57;;
81398;SDS011;70853;50.074;10.224;2023-08-24T07:44:47;8.18;;;4.07;;
81398;SDS011;70853;50.074;10.224;2023-08-24T07:47:13;7.18;;;6.65;;
81398;SDS011;70853;50.074;10.224;2023-08-24T07:49:46;6.55;;;5.53;;
81398;SDS011;70853;50.074;10.224;2023-08-24T07:52:12;5.38;;;3.88;;
81398;SDS011;70853;50.074;10.224;2023-08-24T07:54:38;4.07;;;2.50;;
81398;SDS011;70853;50.074;10.224;2023-08-24T07:57:06;5.47;;;4.90;;
81398;SDS011;70853;50.074;10.224;2023-08-24T07:59:49;4.32;;;3.83;;
81398;SDS011;70853;50.074;10.224;2023-08-24T08:02:14;7.25;;;4.10;;
81398;SDS011;70853;50.074;10.224;2023-08-24T08:04:40;2.88;;;2.22;;
81398;SDS011;70853;50.074;10.224;2023-08-24T08:07:06;7.03;;;4.50;;
81398;SDS011;70853;50.074;10.224;2023-08-24T08:09:38;7.50;;;4.05;;
81398;SDS011;70853;50.074;10.224;2023-08-24T08:12:13;4.63;;;3.30;;
81398;SDS011;70853;50.074;10.224;2023-08-24T08:14:38;4.43;;;2.90;;
81398;SDS011;70853;50.074;10.224;2023-08-24T08:17:06;6.50;;;5.90;;
81398;SDS011;70853;50.074;10.224;2023-08-24T08:19:32;4.82;;;4.10;;
81398;SDS011;70853;50.074;10.224;2023-08-24T08:22:01;6.90;;;6.20;;
81398;SDS011;70853;50.074;10.224;2023-08-24T08:24:27;7.93;;;5.13;;
81398;SDS011;70853;50.074;10.224;2023-08-24T08:26:53;4.65;;;2.70;;
81398;SDS011;70853;50.074;10.224;2023-08-24T08:29:19;6.78;;;3.25;;
81398;SDS011;70853;50.074;10.224;2023-08-24T08:31:48;5.57;;;3.35;;
81398;SDS011;70853;50.074;10.224;2023-08-24T08:34:14;4.43;;;2.67;;
81398;SDS011;70853;50.074;10.224;2023-08-24T08:36:40;3.28;;;2.72;;
81398;SDS011;70853;50.074;10.224;2023-08-24T08:39:07;5.63;;;5.22;;
81398;SDS011;70853;50.074;10.224;2023-08-24T08:41:34;4.97;;;2.90;;
81398;SDS011;70853;50.074;10.224;2023-08-24T08:46:34;4.65;;;3.13;;
81398;SDS011;70853;50.074;10.224;2023-08-24T08:49:00;7.15;;;3.25;;
81398;SDS011;70853;50.074;10.224;2023-08-24T08:51:27;7.68;;;1.90;;
81398;SDS011;70853;50.074;10.224;2023-08-24T08:53:54;5.03;;;4.50;;
81398;SDS011;70853;50.074;10.224;2023-08-24T08:56:20;3.92;;;2.88;;
81398;SDS011;70853;50.074;10.224;2023-08-24T08:58:49;8.30;;;2.90;;
81398;SDS011;70853;50.074;10.224;2023-08-24T09:01:16;6.07;;;3.45;;
81398;SDS011;70853;50.074;10.224;2023-08-24T09:03:42;13.13;;;2.30;;
81398;SDS011;70853;50.074;10.224;2023-08-24T09:06:18;7.05;;;5.68;;
81398;SDS011;70853;50.074;10.224;2023-08-24T09:08:44;5.30;;;3.83;;
81398;SDS011;70853;50.074;10.224;2023-08-24T09:11:11;6.32;;;3.83;;
81398;SDS011;70853;50.074;10.224;2023-08-24T09:13:38;7.93;;;5.53;;
81398;SDS011;70853;50.074;10.224;2023-08-24T09:16:07;11.57;;;5.47;;
81398;SDS011;70853;50.074;10.224;2023-08-24T09:18:38;8.70;;;3.00;;
81398;SDS011;70853;50.074;10.224;2023-08-24T09:21:11;3.05;;;2.10;;
81398;SDS011;70853;50.074;10.224;2023-08-24T09:23:44;4.18;;;3.78;;
81398;SDS011;70853;50.074;10.224;2023-08-24T09:26:28;7.22;;;5.13;;
81398;SDS011;70853;50.074;10.224;2023-08-24T09:28:54;5.80;;;4.63;;
81398;SDS011;70853;50.074;10.224;2023-08-24T09:31:20;5.80;;;2.25;;
81398;SDS011;70853;50.074;10.224;2023-08-24T09:33:47;3.10;;;2.42;;
81398;SDS011;70853;50.074;10.224;2023-08-24T09:36:25;7.43;;;4.50;;
81398;SDS011;70853;50.074;10.224;2023-08-24T09:38:50;4.32;;;3.30;;
81398;SDS011;70853;50.074;10.224;2023-08-24T09:41:17;6.65;;;3.30;;
81398;SDS011;70853;50.074;10.224;2023-08-24T09:46:32;4.90;;;3.53;;
81398;SDS011;70853;50.074;10.224;2023-08-24T09:48:58;6.60;;;3.22;;
81398;SDS011;70853;50.074;10.224;2023-08-24T09:51:26;2.72;;;2.00;;
81398;SDS011;70853;50.074;10.224;2023-08-24T09:53:52;4.43;;;2.72;;
81398;SDS011;70853;50.074;10.224;2023-08-24T09:56:25;6.30;;;4.35;;
81398;SDS011;70853;50.074;10.224;2023-08-24T09:58:53;6.22;;;5.70;;
81398;SDS011;70853;50.074;10.224;2023-08-24T10:01:20;4.53;;;2.30;;
81398;SDS011;70853;50.074;10.224;2023-08-24T10:03:48;2.70;;;2.38;;
81398;SDS011;70853;50.074;10.224;2023-08-24T10:06:17;4.57;;;2.78;;
81398;SDS011;70853;50.074;10.224;2023-08-24T10:08:50;4.47;;;1.80;;
81398;SDS011;70853;50.074;10.224;2023-08-24T10:11:25;4.18;;;3.22;;
81398;SDS011;70853;50.074;10.224;2023-08-24T10:14:13;4.97;;;3.92;;
81398;SDS011;70853;50.074;10.224;2023-08-24T10:16:43;5.65;;;2.97;;
81398;SDS011;70853;50.074;10.224;2023-08-24T10:19:11;8.05;;;2.42;;
81398;SDS011;70853;50.074;10.224;2023-08-24T10:21:38;2.97;;;2.72;;
81398;SDS011;70853;50.074;10.224;2023-08-24T10:24:06;4.85;;;2.50;;
81398;SDS011;70853;50.074;10.224;2023-08-24T10:26:34;4.75;;;2.30;;
81398;SDS011;70853;50.074;10.224;2023-08-24T10:29:01;5.05;;;4.63;;
81398;SDS011;70853;50.074;10.224;2023-08-24T10:31:29;5.88;;;1.65;;
81398;SDS011;70853;50.074;10.224;2023-08-24T10:33:55;2.20;;;1.70;;
81398;SDS011;70853;50.074;10.224;2023-08-24T10:36:22;3.50;;;1.58;;
81398;SDS011;70853;50.074;10.224;2023-08-24T10:38:48;4.15;;;3.85;;
81398;SDS011;70853;50.074;10.224;2023-08-24T10:41:16;4.70;;;3.22;;
81398;SDS011;70853;50.074;10.224;2023-08-24T10:43:48;4.82;;;4.43;;
81398;SDS011;70853;50.074;10.224;2023-08-24T10:46:15;2.65;;;2.45;;
81398;SDS011;70853;50.074;10.224;2023-08-24T10:53:40;4.70;;;3.80;;
81398;SDS011;70853;50.074;10.224;2023-08-24T10:56:15;4.13;;;2.75;;
81398;SDS011;70853;50.074;10.224;2023-08-24T10:58:43;5.18;;;2.80;;
81398;SDS011;70853;50.074;10.224;2023-08-24T11:03:48;3.65;;;2.13;;
81398;SDS011;70853;50.074;10.224;2023-08-24T11:06:19;5.28;;;1.52;;
81398;SDS011;70853;50.074;10.224;2023-08-24T11:08:49;6.53;;;3.42;;
81398;SDS011;70853;50.074;10.224;2023-08-24T11:11:30;6.50;;;2.05;;
81398;SDS011;70853;50.074;10.224;2023-08-24T11:16:51;4.63;;;3.40;;
81398;SDS011;70853;50.074;10.224;2023-08-24T11:19:17;8.57;;;2.35;;
81398;SDS011;70853;50.074;10.224;2023-08-24T11:21:44;1.92;;;0.90;;
81398;SDS011;70853;50.074;10.224;2023-08-24T11:24:14;5.35;;;0.70;;
81398;SDS011;70853;50.074;10.224;2023-08-24T11:26:42;4.88;;;1.02;;
81398;SDS011;70853;50.074;10.224;2023-08-24T11:31:35;3.75;;;3.15;;
81398;SDS011;70853;50.074;10.224;2023-08-24T11:34:01;9.18;;;3.85;;
81398;SDS011;70853;50.074;10.224;2023-08-24T11:36:31;7.07;;;3.80;;
81398;SDS011;70853;50.074;10.224;2023-08-24T11:39:06;3.42;;;1.83;;
81398;SDS011;70853;50.074;10.224;2023-08-24T11:41:32;4.30;;;1.52;;
81398;SDS011;70853;50.074;10.224;2023-08-24T11:43:58;3.83;;;1.98;;
81398;SDS011;70853;50.074;10.224;2023-08-24T11:46:25;5.97;;;3.30;;
81398;SDS011;70853;50.074;10.224;2023-08-24T11:48:56;5.07;;;3.75;;
81398;SDS011;70853;50.074;10.224;2023-08-24T11:51:22;5.43;;;3.47;;
81398;SDS011;70853;50.074;10.224;2023-08-24T11:53:48;5.13;;;2.70;;
81398;SDS011;70853;50.074;10.224;2023-08-24T11:56:14;2.22;;;1.77;;
81398;SDS011;70853;50.074;10.224;2023-08-24T11:58:43;2.78;;;2.47;;
81398;SDS011;70853;50.074;10.224;2023-08-24T12:01:10;4.68;;;1.10;;
81398;SDS011;70853;50.074;10.224;2023-08-24T12:03:39;5.80;;;1.60;;
81398;SDS011;70853;50.074;10.224;2023-08-24T12:06:15;6.60;;;2.67;;
81398;SDS011;70853;50.074;10.224;2023-08-24T12:08:42;4.60;;;3.20;;
81398;SDS011;70853;50.074;10.224;2023-08-24T12:11:17;2.83;;;2.15;;
81398;SDS011;70853;50.074;10.224;2023-08-24T12:13:51;5.32;;;1.02;;
81398;SDS011;70853;50.074;10.224;2023-08-24T12:16:18;5.68;;;3.38;;
81398;SDS011;70853;50.074;10.224;2023-08-24T12:21:20;5.53;;;1.95;;
81398;SDS011;70853;50.074;10.224;2023-08-24T12:23:59;7.13;;;3.25;;
81398;SDS011;70853;50.074;10.224;2023-08-24T12:26:26;6.47;;;2.72;;
81398;SDS011;70853;50.074;10.224;2023-08-24T12:28:53;3.13;;;1.80;;
81398;SDS011;70853;50.074;10.224;2023-08-24T12:31:20;4.97;;;2.50;;
81398;SDS011;70853;50.074;10.224;2023-08-24T12:36:29;5.60;;;1.80;;
81398;SDS011;70853;50.074;10.224;2023-08-24T12:38:56;5.95;;;4.28;;
81398;SDS011;70853;50.074;10.224;2023-08-24T12:41:23;5.25;;;1.35;;
81398;SDS011;70853;50.074;10.224;2023-08-24T12:43:50;4.03;;;1.63;;
81398;SDS011;70853;50.074;10.224;2023-08-24T12:46:16;4.38;;;1.83;;
81398;SDS011;70853;50.074;10.224;2023-08-24T12:48:42;2.55;;;1.38;;
81398;SDS011;70853;50.074;10.224;2023-08-24T12:51:07;3.90;;;3.40;;
81398;SDS011;70853;50.074;10.224;2023-08-24T12:53:33;4.93;;;1.70;;
81398;SDS011;70853;50.074;10.224;2023-08-24T12:55:59;3.45;;;1.08;;
81398;SDS011;70853;50.074;10.224;2023-08-24T12:58:24;2.92;;;1.15;;
81398;SDS011;70853;50.074;10.224;2023-08-24T13:00:50;8.98;;;3.28;;
81398;SDS011;70853;50.074;10.224;2023-08-24T13:03:16;6.00;;;2.63;;
81398;SDS011;70853;50.074;10.224;2023-08-24T13:05:41;2.85;;;0.90;;
81398;SDS011;70853;50.074;10.224;2023-08-24T13:08:07;2.70;;;0.98;;
81398;SDS011;70853;50.074;10.224;2023-08-24T13:10:33;5.50;;;1.50;;
81398;SDS011;70853;50.074;10.224;2023-08-24T13:12:59;4.57;;;0.50;;
81398;SDS011;70853;50.074;10.224;2023-08-24T13:15:25;2.83;;;1.08;;
81398;SDS011;70853;50.074;10.224;2023-08-24T13:17:51;5.43;;;1.15;;
81398;SDS011;70853;50.074;10.224;2023-08-24T13:20:17;4.75;;;1.35;;
81398;SDS011;70853;50.074;10.224;2023-08-24T13:22:42;3.72;;;1.38;;
81398;SDS011;70853;50.074;10.224;2023-08-24T13:25:08;5.28;;;2.33;;
81398;SDS011;70853;50.074;10.224;2023-08-24T13:27:35;3.13;;;2.03;;
81398;SDS011;70853;50.074;10.224;2023-08-24T13:30:00;4.72;;;1.35;;
81398;SDS011;70853;50.074;10.224;2023-08-24T13:32:28;5.38;;;1.45;;
81398;SDS011;70853;50.074;10.224;2023-08-24T13:34:53;5.15;;;0.93;;
81398;SDS011;70853;50.074;10.224;2023-08-24T13:37:21;3.55;;;1.33;;
81398;SDS011;70853;50.074;10.224;2023-08-24T13:39:47;3.58;;;1.58;;
81398;SDS011;70853;50.074;10.224;2023-08-24T13:42:17;7.18;;;1.15;;
81398;SDS011;70853;50.074;10.224;2023-08-24T13:44:44;2.95;;;1.00;;
81398;SDS011;70853;50.074;10.224;2023-08-24T13:47:11;3.97;;;1.98;;
81398;SDS011;70853;50.074;10.224;2023-08-24T13:49:37;5.97;;;1.70;;
81398;SDS011;70853;50.074;10.224;2023-08-24T13:52:07;9.90;;;0.75;;
81398;SDS011;70853;50.074;10.224;2023-08-24T13:54:33;2.28;;;1.25;;
81398;SDS011;70853;50.074;10.224;2023-08-24T13:57:00;2.47;;;0.73;;
81398;SDS011;70853;50.074;10.224;2023-08-24T13:59:26;3.25;;;1.00;;
81398;SDS011;70853;50.074;10.224;2023-08-24T14:01:52;5.18;;;2.38;;
81398;SDS011;70853;50.074;10.224;2023-08-24T14:04:17;3.95;;;0.60;;
81398;SDS011;70853;50.074;10.224;2023-08-24T14:06:43;6.60;;;0.70;;
81398;SDS011;70853;50.074;10.224;2023-08-24T14:09:09;3.08;;;1.90;;
81398;SDS011;70853;50.074;10.224;2023-08-24T14:11:34;11.60;;;1.17;;
81398;SDS011;70853;50.074;10.224;2023-08-24T14:14:03;5.22;;;1.65;;
81398;SDS011;70853;50.074;10.224;2023-08-24T14:16:29;3.50;;;0.60;;
81398;SDS011;70853;50.074;10.224;2023-08-24T14:18:54;2.85;;;0.43;;
81398;SDS011;70853;50.074;10.224;2023-08-24T14:21:20;3.30;;;1.30;;
81398;SDS011;70853;50.074;10.224;2023-08-24T14:23:46;4.88;;;0.70;;
81398;SDS011;70853;50.074;10.224;2023-08-24T14:26:12;2.65;;;0.98;;
81398;SDS011;70853;50.074;10.224;2023-08-24T14:28:52;7.20;;;0.63;;
81398;SDS011;70853;50.074;10.224;2023-08-24T14:31:26;3.67;;;0.45;;
81398;SDS011;70853;50.074;10.224;2023-08-24T14:33:53;3.15;;;0.55;;
81398;SDS011;70853;50.074;10.224;2023-08-24T14:36:19;2.35;;;0.98;;
81398;SDS011;70853;50.074;10.224;2023-08-24T14:38:46;3.10;;;0.63;;
81398;SDS011;70853;50.074;10.224;2023-08-24T14:41:13;2.72;;;1.67;;
81398;SDS011;70853;50.074;10.224;2023-08-24T14:43:40;4.82;;;1.13;;
81398;SDS011;70853;50.074;10.224;2023-08-24T14:46:09;5.55;;;1.25;;
81398;SDS011;70853;50.074;10.224;2023-08-24T14:48:35;4.15;;;2.65;;
81398;SDS011;70853;50.074;10.224;2023-08-24T14:51:01;5.40;;;0.40;;
81398;SDS011;70853;50.074;10.224;2023-08-24T14:53:27;2.83;;;0.77;;
81398;SDS011;70853;50.074;10.224;2023-08-24T14:55:55;2.90;;;1.05;;
81398;SDS011;70853;50.074;10.224;2023-08-24T14:58:21;3.83;;;1.15;;
81398;SDS011;70853;50.074;10.224;2023-08-24T15:00:48;4.65;;;1.67;;
81398;SDS011;70853;50.074;10.224;2023-08-24T15:03:15;4.07;;;0.68;;
81398;SDS011;70853;50.074;10.224;2023-08-24T15:05:45;2.45;;;0.73;;